sensor_id;sensor_type;location;lat;lon;timestamp;P1;durP1;ratioP1;P2;durP2;ratioP2
2111;SDS011;1062;52.538;13.400;2022-08-19T00:00:24;9.87;;;8.97;;
2111;SDS011;1062;52.538;13.400;2022-08-19T00:02:50;13.13;;;12.03;;
2111;SDS011;1062;52.538;13.400;2022-08-19T00:05:17;10.80;;;9.57;;
2111;SDS011;1062;52.538;13.400;2022-08-19T00:07:43;11.40;;;10.00;;
2111;SDS011;1062;52.538;13.400;2022-08-19T00:10:10;12.77;;;11.37;;
2111;SDS011;1062;52.538;13.400;2022-08-19T00:12:37;11.70;;;10.60;;
2111;SDS011;1062;52.538;13.400;2022-08-19T00:15:07;11.23;;;10.10;;
2111;SDS011;1062;52.538;13.400;2022-08-19T00:17:39;12.40;;;11.17;;
2111;SDS011;1062;52.538;13.400;2022-08-19T00:20:06;11.43;;;10.13;;
2111;SDS011;1062;52.538;13.400;2022-08-19T00:22:32;12.07;;;10.50;;
2111;SDS011;1062;52.538;13.400;2022-08-19T00:24:58;13.73;;;11.37;;
2111;SDS011;1062;52.538;13.400;2022-08-19T00:27:23;11.60;;;10.53;;
2111;SDS011;1062;52.538;13.400;2022-08-19T00:29:49;11.13;;;10.10;;
2111;SDS011;1062;52.538;13.400;2022-08-19T00:32:15;10.67;;;9.60;;
2111;SDS011;1062;52.538;13.400;2022-08-19T00:34:41;12.13;;;10.60;;
2111;SDS011;1062;52.538;13.400;2022-08-19T00:37:06;12.40;;;11.20;;
2111;SDS011;1062;52.538;13.400;2022-08-19T00:39:32;11.57;;;10.40;;
2111;SDS011;1062;52.538;13.400;2022-08-19T00:41:57;13.10;;;11.67;;
2111;SDS011;1062;52.538;13.400;2022-08-19T00:44:25;14.03;;;12.53;;
2111;SDS011;1062;52.538;13.400;2022-08-19T00:46:54;13.83;;;12.00;;
2111;SDS011;1062;52.538;13.400;2022-08-19T00:49:26;15.00;;;13.17;;
2111;SDS011;1062;52.538;13.400;2022-08-19T00:52:21;14.77;;;13.27;;
2111;SDS011;1062;52.538;13.400;2022-08-19T00:54:56;13.50;;;12.20;;
2111;SDS011;1062;52.538;13.400;2022-08-19T00:57:27;12.97;;;11.50;;
2111;SDS011;1062;52.538;13.400;2022-08-19T00:59:57;14.73;;;13.07;;
2111;SDS011;1062;52.538;13.400;2022-08-19T01:02:24;13.70;;;12.40;;
2111;SDS011;1062;52.538;13.400;2022-08-19T01:04:51;12.70;;;11.40;;
2111;SDS011;1062;52.538;13.400;2022-08-19T01:07:17;12.37;;;11.10;;
2111;SDS011;1062;52.538;13.400;2022-08-19T01:09:43;12.67;;;11.50;;
2111;SDS011;1062;52.538;13.400;2022-08-19T01:12:08;11.80;;;10.57;;
2111;SDS011;1062;52.538;13.400;2022-08-19T01:14:34;13.83;;;12.50;;
2111;SDS011;1062;52.538;13.400;2022-08-19T01:17:03;11.70;;;10.50;;
2111;SDS011;1062;52.538;13.400;2022-08-19T01:19:31;11.57;;;10.37;;
2111;SDS011;1062;52.538;13.400;2022-08-19T01:22:02;12.57;;;11.30;;
2111;SDS011;1062;52.538;13.400;2022-08-19T01:24:37;11.80;;;10.60;;
2111;SDS011;1062;52.538;13.400;2022-08-19T01:27:06;12.57;;;11.33;;
2111;SDS011;1062;52.538;13.400;2022-08-19T01:29:32;11.93;;;10.73;;
2111;SDS011;1062;52.538;13.400;2022-08-19T01:31:58;12.43;;;11.13;;
2111;SDS011;1062;52.538;13.400;2022-08-19T01:34:25;12.93;;;11.73;;
2111;SDS011;1062;52.538;13.400;2022-08-19T01:36:50;13.20;;;11.80;;
2111;SDS011;1062;52.538;13.400;2022-08-19T01:39:17;13.20;;;11.90;;
2111;SDS011;1062;52.538;13.400;2022-08-19T01:41:48;12.43;;;11.23;;
2111;SDS011;1062;52.538;13.400;2022-08-19T01:44:15;12.70;;;11.40;;
2111;SDS011;1062;52.538;13.400;2022-08-19T01:46:42;16.87;;;15.27;;
2111;SDS011;1062;52.538;13.400;2022-08-19T01:49:08;11.73;;;10.47;;
2111;SDS011;1062;52.538;13.400;2022-08-19T01:51:35;13.30;;;11.90;;
2111;SDS011;1062;52.538;13.400;2022-08-19T01:54:01;14.57;;;12.47;;
2111;SDS011;1062;52.538;13.400;2022-08-19T01:56:26;12.70;;;11.50;;
2111;SDS011;1062;52.538;13.400;2022-08-19T01:58:56;13.87;;;12.57;;
2111;SDS011;1062;52.538;13.400;2022-08-19T02:01:26;13.47;;;12.07;;
2111;SDS011;1062;52.538;13.400;2022-08-19T02:03:51;13.70;;;12.10;;
2111;SDS011;1062;52.538;13.400;2022-08-19T02:06:18;15.00;;;13.40;;
2111;SDS011;1062;52.538;13.400;2022-08-19T02:08:44;15.27;;;13.67;;
2111;SDS011;1062;52.538;13.400;2022-08-19T02:11:22;14.67;;;13.13;;
2111;SDS011;1062;52.538;13.400;2022-08-19T02:13:52;16.37;;;14.03;;
2111;SDS011;1062;52.538;13.400;2022-08-19T02:16:18;14.00;;;12.60;;
2111;SDS011;1062;52.538;13.400;2022-08-19T02:18:45;15.00;;;12.30;;
2111;SDS011;1062;52.538;13.400;2022-08-19T02:21:13;14.83;;;13.33;;
2111;SDS011;1062;52.538;13.400;2022-08-19T02:23:40;15.77;;;14.03;;
2111;SDS011;1062;52.538;13.400;2022-08-19T02:26:06;13.80;;;11.80;;
2111;SDS011;1062;52.538;13.400;2022-08-19T02:28:32;16.53;;;12.70;;
2111;SDS011;1062;52.538;13.400;2022-08-19T02:30:58;14.27;;;12.70;;
2111;SDS011;1062;52.538;13.400;2022-08-19T02:33:25;13.47;;;12.07;;
2111;SDS011;1062;52.538;13.400;2022-08-19T02:35:51;13.80;;;11.90;;
2111;SDS011;1062;52.538;13.400;2022-08-19T02:38:17;14.07;;;12.73;;
2111;SDS011;1062;52.538;13.400;2022-08-19T02:40:52;15.20;;;13.60;;
2111;SDS011;1062;52.538;13.400;2022-08-19T02:43:26;13.47;;;12.07;;
2111;SDS011;1062;52.538;13.400;2022-08-19T02:45:53;14.23;;;12.00;;
2111;SDS011;1062;52.538;13.400;2022-08-19T02:48:19;15.13;;;13.33;;
2111;SDS011;1062;52.538;13.400;2022-08-19T02:50:47;14.63;;;12.43;;
2111;SDS011;1062;52.538;13.400;2022-08-19T02:53:23;13.67;;;11.80;;
2111;SDS011;1062;52.538;13.400;2022-08-19T02:55:51;13.90;;;12.17;;
2111;SDS011;1062;52.538;13.400;2022-08-19T02:58:17;13.17;;;11.60;;
2111;SDS011;1062;52.538;13.400;2022-08-19T03:00:44;13.27;;;11.97;;
2111;SDS011;1062;52.538;13.400;2022-08-19T03:03:13;13.10;;;11.73;;
2111;SDS011;1062;52.538;13.400;2022-08-19T03:05:39;13.70;;;11.87;;
2111;SDS011;1062;52.538;13.400;2022-08-19T03:08:05;17.73;;;13.27;;
2111;SDS011;1062;52.538;13.400;2022-08-19T03:10:31;15.83;;;12.27;;
2111;SDS011;1062;52.538;13.400;2022-08-19T03:12:57;16.00;;;12.70;;
2111;SDS011;1062;52.538;13.400;2022-08-19T03:15:23;12.20;;;10.90;;
2111;SDS011;1062;52.538;13.400;2022-08-19T03:17:49;14.13;;;12.73;;
2111;SDS011;1062;52.538;13.400;2022-08-19T03:20:14;14.63;;;13.10;;
2111;SDS011;1062;52.538;13.400;2022-08-19T03:22:40;12.73;;;11.43;;
2111;SDS011;1062;52.538;13.400;2022-08-19T03:25:06;11.23;;;10.00;;
2111;SDS011;1062;52.538;13.400;2022-08-19T03:27:31;14.63;;;11.23;;
2111;SDS011;1062;52.538;13.400;2022-08-19T03:29:57;16.53;;;12.73;;
2111;SDS011;1062;52.538;13.400;2022-08-19T03:32:23;12.67;;;11.43;;
2111;SDS011;1062;52.538;13.400;2022-08-19T03:34:48;12.90;;;11.57;;
2111;SDS011;1062;52.538;13.400;2022-08-19T03:37:15;15.20;;;13.07;;
2111;SDS011;1062;52.538;13.400;2022-08-19T03:39:41;14.27;;;12.77;;
2111;SDS011;1062;52.538;13.400;2022-08-19T03:42:07;13.27;;;11.90;;
2111;SDS011;1062;52.538;13.400;2022-08-19T03:44:33;14.13;;;12.53;;
2111;SDS011;1062;52.538;13.400;2022-08-19T03:47:01;14.60;;;12.77;;
2111;SDS011;1062;52.538;13.400;2022-08-19T03:49:28;19.67;;;14.80;;
2111;SDS011;1062;52.538;13.400;2022-08-19T03:51:56;15.73;;;12.60;;
2111;SDS011;1062;52.538;13.400;2022-08-19T03:54:24;15.60;;;14.00;;
2111;SDS011;1062;52.538;13.400;2022-08-19T03:56:51;16.57;;;13.60;;
2111;SDS011;1062;52.538;13.400;2022-08-19T03:59:22;13.63;;;11.93;;
2111;SDS011;1062;52.538;13.400;2022-08-19T04:01:54;13.13;;;11.73;;
2111;SDS011;1062;52.538;13.400;2022-08-19T04:04:21;14.53;;;13.03;;
2111;SDS011;1062;52.538;13.400;2022-08-19T04:06:47;15.47;;;13.83;;
2111;SDS011;1062;52.538;13.400;2022-08-19T04:09:13;15.07;;;13.43;;
2111;SDS011;1062;52.538;13.400;2022-08-19T04:11:41;14.30;;;13.00;;
2111;SDS011;1062;52.538;13.400;2022-08-19T04:14:12;16.83;;;12.93;;
2111;SDS011;1062;52.538;13.400;2022-08-19T04:16:43;15.27;;;13.77;;
2111;SDS011;1062;52.538;13.400;2022-08-19T04:19:10;17.63;;;14.00;;
2111;SDS011;1062;52.538;13.400;2022-08-19T04:21:36;16.13;;;13.20;;
2111;SDS011;1062;52.538;13.400;2022-08-19T04:24:01;16.30;;;12.93;;
2111;SDS011;1062;52.538;13.400;2022-08-19T04:26:31;15.73;;;14.13;;
2111;SDS011;1062;52.538;13.400;2022-08-19T04:29:00;14.40;;;13.00;;
2111;SDS011;1062;52.538;13.400;2022-08-19T04:31:28;13.80;;;12.40;;
2111;SDS011;1062;52.538;13.400;2022-08-19T04:33:58;16.20;;;14.50;;
2111;SDS011;1062;52.538;13.400;2022-08-19T04:36:27;15.07;;;13.67;;
2111;SDS011;1062;52.538;13.400;2022-08-19T04:38:59;15.33;;;13.77;;
2111;SDS011;1062;52.538;13.400;2022-08-19T04:41:29;12.83;;;11.57;;
2111;SDS011;1062;52.538;13.400;2022-08-19T04:44:13;15.37;;;13.87;;
2111;SDS011;1062;52.538;13.400;2022-08-19T04:46:42;13.77;;;12.47;;
2111;SDS011;1062;52.538;13.400;2022-08-19T04:49:09;15.80;;;14.20;;
2111;SDS011;1062;52.538;13.400;2022-08-19T04:51:35;14.40;;;13.00;;
2111;SDS011;1062;52.538;13.400;2022-08-19T04:54:02;15.33;;;12.57;;
2111;SDS011;1062;52.538;13.400;2022-08-19T04:56:28;14.23;;;12.70;;
2111;SDS011;1062;52.538;13.400;2022-08-19T04:58:54;13.40;;;12.00;;
2111;SDS011;1062;52.538;13.400;2022-08-19T05:01:23;15.10;;;13.50;;
2111;SDS011;1062;52.538;13.400;2022-08-19T05:03:51;12.23;;;11.00;;
2111;SDS011;1062;52.538;13.400;2022-08-19T05:06:18;15.70;;;11.57;;
2111;SDS011;1062;52.538;13.400;2022-08-19T05:08:45;12.77;;;11.40;;
2111;SDS011;1062;52.538;13.400;2022-08-19T05:11:19;12.20;;;10.90;;
2111;SDS011;1062;52.538;13.400;2022-08-19T05:13:50;12.07;;;10.90;;
2111;SDS011;1062;52.538;13.400;2022-08-19T05:16:18;12.93;;;11.63;;
2111;SDS011;1062;52.538;13.400;2022-08-19T05:18:46;13.17;;;11.20;;
2111;SDS011;1062;52.538;13.400;2022-08-19T05:21:31;10.80;;;9.73;;
2111;SDS011;1062;52.538;13.400;2022-08-19T05:24:16;13.90;;;12.07;;
2111;SDS011;1062;52.538;13.400;2022-08-19T05:26:43;13.30;;;11.23;;
2111;SDS011;1062;52.538;13.400;2022-08-19T05:29:11;11.17;;;10.03;;
2111;SDS011;1062;52.538;13.400;2022-08-19T05:31:38;12.53;;;11.33;;
2111;SDS011;1062;52.538;13.400;2022-08-19T05:34:04;11.63;;;10.50;;
2111;SDS011;1062;52.538;13.400;2022-08-19T05:36:34;11.27;;;10.17;;
2111;SDS011;1062;52.538;13.400;2022-08-19T05:39:04;12.17;;;10.90;;
2111;SDS011;1062;52.538;13.400;2022-08-19T05:41:31;10.90;;;9.80;;
2111;SDS011;1062;52.538;13.400;2022-08-19T05:43:57;10.77;;;9.67;;
2111;SDS011;1062;52.538;13.400;2022-08-19T05:46:25;9.60;;;8.70;;
2111;SDS011;1062;52.538;13.400;2022-08-19T05:48:51;10.07;;;8.20;;
2111;SDS011;1062;52.538;13.400;2022-08-19T05:51:17;10.03;;;9.00;;
2111;SDS011;1062;52.538;13.400;2022-08-19T05:53:42;11.97;;;9.47;;
2111;SDS011;1062;52.538;13.400;2022-08-19T05:56:11;11.50;;;10.27;;
2111;SDS011;1062;52.538;13.400;2022-08-19T05:58:38;10.27;;;9.30;;
2111;SDS011;1062;52.538;13.400;2022-08-19T06:01:04;12.33;;;10.70;;
2111;SDS011;1062;52.538;13.400;2022-08-19T06:03:35;10.50;;;9.57;;
2111;SDS011;1062;52.538;13.400;2022-08-19T06:06:02;10.17;;;9.17;;
2111;SDS011;1062;52.538;13.400;2022-08-19T06:08:28;10.47;;;9.47;;
2111;SDS011;1062;52.538;13.400;2022-08-19T06:10:54;10.80;;;9.70;;
2111;SDS011;1062;52.538;13.400;2022-08-19T06:13:20;10.63;;;9.73;;
2111;SDS011;1062;52.538;13.400;2022-08-19T06:15:47;10.90;;;9.77;;
2111;SDS011;1062;52.538;13.400;2022-08-19T06:18:13;10.77;;;9.77;;
2111;SDS011;1062;52.538;13.400;2022-08-19T06:20:40;10.53;;;9.43;;
2111;SDS011;1062;52.538;13.400;2022-08-19T06:23:06;11.37;;;10.27;;
2111;SDS011;1062;52.538;13.400;2022-08-19T06:25:33;11.70;;;10.60;;
2111;SDS011;1062;52.538;13.400;2022-08-19T06:27:59;10.60;;;9.70;;
2111;SDS011;1062;52.538;13.400;2022-08-19T06:30:25;12.00;;;10.73;;
2111;SDS011;1062;52.538;13.400;2022-08-19T06:32:51;10.90;;;9.83;;
2111;SDS011;1062;52.538;13.400;2022-08-19T06:35:17;12.50;;;11.40;;
2111;SDS011;1062;52.538;13.400;2022-08-19T06:37:42;12.03;;;10.93;;
2111;SDS011;1062;52.538;13.400;2022-08-19T06:40:09;11.63;;;10.53;;
2111;SDS011;1062;52.538;13.400;2022-08-19T06:42:36;12.47;;;11.27;;
2111;SDS011;1062;52.538;13.400;2022-08-19T06:45:03;12.37;;;11.17;;
2111;SDS011;1062;52.538;13.400;2022-08-19T06:47:31;12.30;;;11.00;;
2111;SDS011;1062;52.538;13.400;2022-08-19T06:50:00;12.47;;;11.27;;
2111;SDS011;1062;52.538;13.400;2022-08-19T06:52:27;11.33;;;10.23;;
2111;SDS011;1062;52.538;13.400;2022-08-19T06:54:55;13.47;;;11.23;;
2111;SDS011;1062;52.538;13.400;2022-08-19T06:57:25;12.33;;;11.13;;
2111;SDS011;1062;52.538;13.400;2022-08-19T06:59:52;12.70;;;11.47;;
2111;SDS011;1062;52.538;13.400;2022-08-19T07:02:18;12.33;;;10.87;;
2111;SDS011;1062;52.538;13.400;2022-08-19T07:04:45;11.83;;;10.37;;
2111;SDS011;1062;52.538;13.400;2022-08-19T07:07:11;12.43;;;11.17;;
2111;SDS011;1062;52.538;13.400;2022-08-19T07:09:40;12.37;;;11.17;;
2111;SDS011;1062;52.538;13.400;2022-08-19T07:12:09;12.73;;;11.53;;
2111;SDS011;1062;52.538;13.400;2022-08-19T07:14:36;12.60;;;11.37;;
2111;SDS011;1062;52.538;13.400;2022-08-19T07:17:04;13.23;;;11.07;;
2111;SDS011;1062;52.538;13.400;2022-08-19T07:19:32;13.50;;;12.20;;
2111;SDS011;1062;52.538;13.400;2022-08-19T07:22:00;13.23;;;11.97;;
2111;SDS011;1062;52.538;13.400;2022-08-19T07:24:27;13.07;;;11.77;;
2111;SDS011;1062;52.538;13.400;2022-08-19T07:26:53;13.43;;;12.23;;
2111;SDS011;1062;52.538;13.400;2022-08-19T07:29:25;15.30;;;12.17;;
2111;SDS011;1062;52.538;13.400;2022-08-19T07:31:52;12.63;;;11.40;;
2111;SDS011;1062;52.538;13.400;2022-08-19T07:34:21;13.57;;;12.40;;
2111;SDS011;1062;52.538;13.400;2022-08-19T07:36:48;13.10;;;11.80;;
2111;SDS011;1062;52.538;13.400;2022-08-19T07:39:16;13.97;;;12.53;;
2111;SDS011;1062;52.538;13.400;2022-08-19T07:41:50;13.23;;;11.80;;
2111;SDS011;1062;52.538;13.400;2022-08-19T07:44:16;14.20;;;12.73;;
2111;SDS011;1062;52.538;13.400;2022-08-19T07:46:44;13.60;;;12.23;;
2111;SDS011;1062;52.538;13.400;2022-08-19T07:49:15;14.73;;;12.30;;
2111;SDS011;1062;52.538;13.400;2022-08-19T07:52:06;13.67;;;12.37;;
2111;SDS011;1062;52.538;13.400;2022-08-19T07:54:33;13.73;;;12.30;;
2111;SDS011;1062;52.538;13.400;2022-08-19T07:57:00;14.43;;;12.97;;
2111;SDS011;1062;52.538;13.400;2022-08-19T07:59:27;16.17;;;14.50;;
2111;SDS011;1062;52.538;13.400;2022-08-19T08:01:56;15.80;;;14.20;;
2111;SDS011;1062;52.538;13.400;2022-08-19T08:04:24;14.60;;;13.20;;
2111;SDS011;1062;52.538;13.400;2022-08-19T08:07:08;15.07;;;13.47;;
2111;SDS011;1062;52.538;13.400;2022-08-19T08:09:52;14.57;;;13.27;;
2111;SDS011;1062;52.538;13.400;2022-08-19T08:12:20;13.57;;;12.17;;
2111;SDS011;1062;52.538;13.400;2022-08-19T08:14:54;14.03;;;12.63;;
2111;SDS011;1062;52.538;13.400;2022-08-19T08:17:22;14.10;;;12.60;;
2111;SDS011;1062;52.538;13.400;2022-08-19T08:19:51;15.10;;;13.07;;
2111;SDS011;1062;52.538;13.400;2022-08-19T08:22:17;14.60;;;13.17;;
2111;SDS011;1062;52.538;13.400;2022-08-19T08:25:08;13.63;;;12.23;;
2111;SDS011;1062;52.538;13.400;2022-08-19T08:27:38;14.50;;;13.10;;
2111;SDS011;1062;52.538;13.400;2022-08-19T08:30:07;14.30;;;12.90;;
2111;SDS011;1062;52.538;13.400;2022-08-19T08:32:35;14.67;;;13.23;;
2111;SDS011;1062;52.538;13.400;2022-08-19T08:35:03;15.03;;;13.70;;
2111;SDS011;1062;52.538;13.400;2022-08-19T08:37:33;16.40;;;14.80;;
2111;SDS011;1062;52.538;13.400;2022-08-19T08:40:01;14.00;;;12.67;;
2111;SDS011;1062;52.538;13.400;2022-08-19T08:42:34;14.10;;;12.70;;
2111;SDS011;1062;52.538;13.400;2022-08-19T08:45:05;14.73;;;13.33;;
2111;SDS011;1062;52.538;13.400;2022-08-19T08:47:39;15.10;;;13.60;;
2111;SDS011;1062;52.538;13.400;2022-08-19T08:50:25;16.53;;;13.63;;
2111;SDS011;1062;52.538;13.400;2022-08-19T08:52:57;15.33;;;13.90;;
2111;SDS011;1062;52.538;13.400;2022-08-19T08:55:25;15.10;;;13.60;;
2111;SDS011;1062;52.538;13.400;2022-08-19T08:58:16;14.40;;;12.50;;
2111;SDS011;1062;52.538;13.400;2022-08-19T09:00:46;14.37;;;13.07;;
2111;SDS011;1062;52.538;13.400;2022-08-19T09:03:19;14.23;;;13.00;;
2111;SDS011;1062;52.538;13.400;2022-08-19T09:09:01;13.03;;;11.73;;
2111;SDS011;1062;52.538;13.400;2022-08-19T09:15:04;14.70;;;13.50;;
2111;SDS011;1062;52.538;13.400;2022-08-19T09:17:35;13.60;;;12.20;;
2111;SDS011;1062;52.538;13.400;2022-08-19T09:22:40;14.13;;;12.83;;
2111;SDS011;1062;52.538;13.400;2022-08-19T09:25:09;14.67;;;13.40;;
2111;SDS011;1062;52.538;13.400;2022-08-19T09:27:37;12.70;;;11.40;;
2111;SDS011;1062;52.538;13.400;2022-08-19T09:30:05;13.07;;;11.87;;
2111;SDS011;1062;52.538;13.400;2022-08-19T09:32:32;12.73;;;11.60;;
2111;SDS011;1062;52.538;13.400;2022-08-19T09:34:57;12.93;;;11.63;;
2111;SDS011;1062;52.538;13.400;2022-08-19T09:37:25;12.80;;;11.60;;
2111;SDS011;1062;52.538;13.400;2022-08-19T09:39:51;11.63;;;10.57;;
2111;SDS011;1062;52.538;13.400;2022-08-19T09:42:17;12.20;;;11.10;;
2111;SDS011;1062;52.538;13.400;2022-08-19T09:44:43;12.10;;;10.97;;
2111;SDS011;1062;52.538;13.400;2022-08-19T09:47:10;11.43;;;10.23;;
2111;SDS011;1062;52.538;13.400;2022-08-19T09:49:38;12.03;;;10.80;;
2111;SDS011;1062;52.538;13.400;2022-08-19T09:52:05;13.30;;;12.00;;
2111;SDS011;1062;52.538;13.400;2022-08-19T09:54:32;11.03;;;10.03;;
2111;SDS011;1062;52.538;13.400;2022-08-19T09:56:58;11.60;;;10.60;;
2111;SDS011;1062;52.538;13.400;2022-08-19T09:59:28;11.60;;;10.43;;
2111;SDS011;1062;52.538;13.400;2022-08-19T10:01:53;15.37;;;13.80;;
2111;SDS011;1062;52.538;13.400;2022-08-19T10:04:19;11.80;;;10.60;;
2111;SDS011;1062;52.538;13.400;2022-08-19T10:07:08;11.20;;;9.70;;
2111;SDS011;1062;52.538;13.400;2022-08-19T10:09:33;12.67;;;11.50;;
2111;SDS011;1062;52.538;13.400;2022-08-19T10:11:59;11.70;;;10.70;;
2111;SDS011;1062;52.538;13.400;2022-08-19T10:14:26;11.10;;;10.10;;
2111;SDS011;1062;52.538;13.400;2022-08-19T10:16:52;9.87;;;9.00;;
2111;SDS011;1062;52.538;13.400;2022-08-19T10:19:18;11.30;;;10.30;;
2111;SDS011;1062;52.538;13.400;2022-08-19T10:21:46;11.93;;;10.83;;
2111;SDS011;1062;52.538;13.400;2022-08-19T10:24:11;10.80;;;9.90;;
2111;SDS011;1062;52.538;13.400;2022-08-19T10:26:38;11.80;;;10.60;;
2111;SDS011;1062;52.538;13.400;2022-08-19T10:29:07;12.57;;;11.37;;
2111;SDS011;1062;52.538;13.400;2022-08-19T10:31:33;11.90;;;10.67;;
2111;SDS011;1062;52.538;13.400;2022-08-19T10:33:59;10.67;;;9.77;;
2111;SDS011;1062;52.538;13.400;2022-08-19T10:36:30;11.30;;;10.20;;
2111;SDS011;1062;52.538;13.400;2022-08-19T10:38:58;11.33;;;10.33;;
2111;SDS011;1062;52.538;13.400;2022-08-19T10:41:27;11.70;;;10.60;;
2111;SDS011;1062;52.538;13.400;2022-08-19T10:43:56;12.63;;;10.50;;
2111;SDS011;1062;52.538;13.400;2022-08-19T10:46:25;12.20;;;11.00;;
2111;SDS011;1062;52.538;13.400;2022-08-19T10:48:52;11.67;;;10.57;;
2111;SDS011;1062;52.538;13.400;2022-08-19T10:51:18;12.33;;;11.13;;
2111;SDS011;1062;52.538;13.400;2022-08-19T10:54:03;11.93;;;10.40;;
2111;SDS011;1062;52.538;13.400;2022-08-19T10:56:29;10.90;;;9.80;;
2111;SDS011;1062;52.538;13.400;2022-08-19T10:59:14;10.80;;;9.87;;
2111;SDS011;1062;52.538;13.400;2022-08-19T11:01:41;11.30;;;9.70;;
2111;SDS011;1062;52.538;13.400;2022-08-19T11:04:08;12.03;;;10.73;;
2111;SDS011;1062;52.538;13.400;2022-08-19T11:06:38;12.00;;;10.90;;
2111;SDS011;1062;52.538;13.400;2022-08-19T11:09:07;12.27;;;11.10;;
2111;SDS011;1062;52.538;13.400;2022-08-19T11:11:34;11.63;;;10.53;;
2111;SDS011;1062;52.538;13.400;2022-08-19T11:14:09;12.50;;;11.20;;
2111;SDS011;1062;52.538;13.400;2022-08-19T11:16:37;11.30;;;10.30;;
2111;SDS011;1062;52.538;13.400;2022-08-19T11:19:04;11.17;;;10.00;;
2111;SDS011;1062;52.538;13.400;2022-08-19T11:21:34;10.90;;;9.90;;
2111;SDS011;1062;52.538;13.400;2022-08-19T11:24:11;12.00;;;10.90;;
2111;SDS011;1062;52.538;13.400;2022-08-19T11:26:40;11.90;;;10.73;;
2111;SDS011;1062;52.538;13.400;2022-08-19T11:29:07;11.90;;;10.83;;
2111;SDS011;1062;52.538;13.400;2022-08-19T11:31:38;10.63;;;9.73;;
2111;SDS011;1062;52.538;13.400;2022-08-19T11:34:06;11.27;;;10.17;;
2111;SDS011;1062;52.538;13.400;2022-08-19T11:36:33;11.20;;;10.13;;
2111;SDS011;1062;52.538;13.400;2022-08-19T11:39:02;11.80;;;10.70;;
2111;SDS011;1062;52.538;13.400;2022-08-19T11:41:29;10.83;;;9.83;;
2111;SDS011;1062;52.538;13.400;2022-08-19T11:43:54;10.87;;;9.87;;
2111;SDS011;1062;52.538;13.400;2022-08-19T11:46:21;15.70;;;14.20;;
2111;SDS011;1062;52.538;13.400;2022-08-19T11:48:48;10.93;;;9.93;;
2111;SDS011;1062;52.538;13.400;2022-08-19T11:51:17;19.67;;;16.87;;
2111;SDS011;1062;52.538;13.400;2022-08-19T11:53:45;10.07;;;9.13;;
2111;SDS011;1062;52.538;13.400;2022-08-19T11:56:11;11.03;;;8.57;;
2111;SDS011;1062;52.538;13.400;2022-08-19T11:58:37;9.57;;;8.63;;
2111;SDS011;1062;52.538;13.400;2022-08-19T12:01:13;10.37;;;9.30;;
2111;SDS011;1062;52.538;13.400;2022-08-19T12:03:41;9.40;;;8.50;;
2111;SDS011;1062;52.538;13.400;2022-08-19T12:06:09;9.63;;;8.63;;
2111;SDS011;1062;52.538;13.400;2022-08-19T12:08:39;9.37;;;8.60;;
2111;SDS011;1062;52.538;13.400;2022-08-19T12:11:05;9.20;;;8.40;;
2111;SDS011;1062;52.538;13.400;2022-08-19T12:13:33;9.53;;;8.57;;
2111;SDS011;1062;52.538;13.400;2022-08-19T12:15:59;8.60;;;7.80;;
2111;SDS011;1062;52.538;13.400;2022-08-19T12:18:31;8.33;;;7.70;;
2111;SDS011;1062;52.538;13.400;2022-08-19T12:20:57;7.53;;;6.93;;
2111;SDS011;1062;52.538;13.400;2022-08-19T12:23:25;8.90;;;8.10;;
2111;SDS011;1062;52.538;13.400;2022-08-19T12:25:51;8.27;;;7.50;;
2111;SDS011;1062;52.538;13.400;2022-08-19T12:28:17;8.97;;;8.10;;
2111;SDS011;1062;52.538;13.400;2022-08-19T12:30:44;7.93;;;7.27;;
2111;SDS011;1062;52.538;13.400;2022-08-19T12:33:10;7.77;;;7.00;;
2111;SDS011;1062;52.538;13.400;2022-08-19T12:35:41;7.23;;;6.47;;
2111;SDS011;1062;52.538;13.400;2022-08-19T12:38:10;7.87;;;7.20;;
2111;SDS011;1062;52.538;13.400;2022-08-19T12:40:36;15.43;;;13.63;;
2111;SDS011;1062;52.538;13.400;2022-08-19T12:43:02;7.13;;;6.30;;
2111;SDS011;1062;52.538;13.400;2022-08-19T12:45:27;7.53;;;6.70;;
2111;SDS011;1062;52.538;13.400;2022-08-19T12:47:53;7.00;;;6.40;;
2111;SDS011;1062;52.538;13.400;2022-08-19T12:50:19;8.17;;;7.10;;
2111;SDS011;1062;52.538;13.400;2022-08-19T12:52:46;10.10;;;7.40;;
2111;SDS011;1062;52.538;13.400;2022-08-19T12:55:12;8.27;;;7.47;;
2111;SDS011;1062;52.538;13.400;2022-08-19T12:57:38;7.80;;;7.20;;
2111;SDS011;1062;52.538;13.400;2022-08-19T13:00:05;9.03;;;8.10;;
2111;SDS011;1062;52.538;13.400;2022-08-19T13:02:38;8.30;;;7.50;;
2111;SDS011;1062;52.538;13.400;2022-08-19T13:05:06;8.83;;;8.13;;
2111;SDS011;1062;52.538;13.400;2022-08-19T13:07:34;9.40;;;8.53;;
2111;SDS011;1062;52.538;13.400;2022-08-19T13:09:59;8.80;;;8.00;;
2111;SDS011;1062;52.538;13.400;2022-08-19T13:12:25;9.20;;;7.40;;
2111;SDS011;1062;52.538;13.400;2022-08-19T13:14:51;7.67;;;6.97;;
2111;SDS011;1062;52.538;13.400;2022-08-19T13:17:17;7.93;;;6.97;;
2111;SDS011;1062;52.538;13.400;2022-08-19T13:19:43;7.57;;;6.87;;
2111;SDS011;1062;52.538;13.400;2022-08-19T13:22:09;8.10;;;7.40;;
2111;SDS011;1062;52.538;13.400;2022-08-19T13:24:35;7.90;;;7.10;;
2111;SDS011;1062;52.538;13.400;2022-08-19T13:27:01;7.70;;;7.00;;
2111;SDS011;1062;52.538;13.400;2022-08-19T13:29:27;8.30;;;7.50;;
2111;SDS011;1062;52.538;13.400;2022-08-19T13:32:11;8.67;;;7.87;;
2111;SDS011;1062;52.538;13.400;2022-08-19T13:34:55;8.83;;;8.03;;
2111;SDS011;1062;52.538;13.400;2022-08-19T13:37:21;8.07;;;7.33;;
2111;SDS011;1062;52.538;13.400;2022-08-19T13:40:06;9.50;;;7.73;;
2111;SDS011;1062;52.538;13.400;2022-08-19T13:42:38;8.37;;;7.67;;
2111;SDS011;1062;52.538;13.400;2022-08-19T13:45:04;8.63;;;7.70;;
2111;SDS011;1062;52.538;13.400;2022-08-19T13:47:31;7.87;;;7.10;;
2111;SDS011;1062;52.538;13.400;2022-08-19T13:49:59;8.30;;;7.60;;
2111;SDS011;1062;52.538;13.400;2022-08-19T13:52:25;8.20;;;7.50;;
2111;SDS011;1062;52.538;13.400;2022-08-19T13:54:50;8.90;;;8.10;;
2111;SDS011;1062;52.538;13.400;2022-08-19T13:57:16;8.33;;;7.63;;
2111;SDS011;1062;52.538;13.400;2022-08-19T13:59:42;8.07;;;7.37;;
2111;SDS011;1062;52.538;13.400;2022-08-19T14:02:07;9.63;;;8.73;;
2111;SDS011;1062;52.538;13.400;2022-08-19T14:04:33;9.07;;;8.27;;
2111;SDS011;1062;52.538;13.400;2022-08-19T14:06:58;8.87;;;8.07;;
2111;SDS011;1062;52.538;13.400;2022-08-19T14:09:24;11.53;;;9.30;;
2111;SDS011;1062;52.538;13.400;2022-08-19T14:11:49;9.13;;;8.43;;
2111;SDS011;1062;52.538;13.400;2022-08-19T14:14:16;8.77;;;7.97;;
2111;SDS011;1062;52.538;13.400;2022-08-19T14:16:41;9.07;;;8.37;;
2111;SDS011;1062;52.538;13.400;2022-08-19T14:19:07;8.33;;;7.53;;
2111;SDS011;1062;52.538;13.400;2022-08-19T14:21:33;8.53;;;7.83;;
2111;SDS011;1062;52.538;13.400;2022-08-19T14:23:59;8.63;;;7.77;;
2111;SDS011;1062;52.538;13.400;2022-08-19T14:26:25;7.97;;;7.27;;
2111;SDS011;1062;52.538;13.400;2022-08-19T14:28:50;8.33;;;7.17;;
2111;SDS011;1062;52.538;13.400;2022-08-19T14:31:17;9.00;;;8.13;;
2111;SDS011;1062;52.538;13.400;2022-08-19T14:33:44;9.27;;;8.47;;
2111;SDS011;1062;52.538;13.400;2022-08-19T14:36:13;7.33;;;6.63;;
2111;SDS011;1062;52.538;13.400;2022-08-19T14:38:38;9.57;;;8.67;;
2111;SDS011;1062;52.538;13.400;2022-08-19T14:41:06;9.83;;;8.03;;
2111;SDS011;1062;52.538;13.400;2022-08-19T14:43:33;7.77;;;6.90;;
2111;SDS011;1062;52.538;13.400;2022-08-19T14:45:59;8.30;;;7.60;;
2111;SDS011;1062;52.538;13.400;2022-08-19T14:48:24;8.67;;;7.87;;
2111;SDS011;1062;52.538;13.400;2022-08-19T14:50:51;8.73;;;8.00;;
2111;SDS011;1062;52.538;13.400;2022-08-19T14:53:17;7.83;;;7.13;;
2111;SDS011;1062;52.538;13.400;2022-08-19T14:55:43;8.27;;;7.57;;